sensor_id;sensor_type;location;lat;lon;timestamp;P1;durP1;ratioP1;P2;durP2;ratioP2
76597;SDS011;65486;53.144;18.134;2023-07-16T00:01:16;9.80;;;7.60;;
76597;SDS011;65486;53.144;18.134;2023-07-16T00:03:43;7.90;;;6.50;;
76597;SDS011;65486;53.144;18.134;2023-07-16T00:06:10;10.60;;;7.10;;
76597;SDS011;65486;53.144;18.134;2023-07-16T00:08:37;11.00;;;7.10;;
76597;SDS011;65486;53.144;18.134;2023-07-16T00:11:04;7.80;;;6.90;;
76597;SDS011;65486;53.144;18.134;2023-07-16T00:13:32;7.80;;;6.70;;
76597;SDS011;65486;53.144;18.134;2023-07-16T00:15:59;8.00;;;7.00;;
76597;SDS011;65486;53.144;18.134;2023-07-16T00:18:26;11.50;;;7.50;;
76597;SDS011;65486;53.144;18.134;2023-07-16T00:20:53;9.00;;;7.10;;
76597;SDS011;65486;53.144;18.134;2023-07-16T00:23:20;10.90;;;7.30;;
76597;SDS011;65486;53.144;18.134;2023-07-16T00:25:47;11.40;;;7.60;;
76597;SDS011;65486;53.144;18.134;2023-07-16T00:28:14;9.30;;;7.10;;
76597;SDS011;65486;53.144;18.134;2023-07-16T00:30:42;8.90;;;6.00;;
76597;SDS011;65486;53.144;18.134;2023-07-16T00:33:09;10.70;;;7.30;;
76597;SDS011;65486;53.144;18.134;2023-07-16T00:35:36;8.40;;;6.60;;
76597;SDS011;65486;53.144;18.134;2023-07-16T00:38:03;8.70;;;6.40;;
76597;SDS011;65486;53.144;18.134;2023-07-16T00:40:31;8.00;;;5.80;;
76597;SDS011;65486;53.144;18.134;2023-07-16T00:42:58;8.60;;;6.50;;
76597;SDS011;65486;53.144;18.134;2023-07-16T00:45:25;9.20;;;7.50;;
76597;SDS011;65486;53.144;18.134;2023-07-16T00:47:52;10.90;;;7.30;;
76597;SDS011;65486;53.144;18.134;2023-07-16T00:50:19;10.40;;;7.20;;
76597;SDS011;65486;53.144;18.134;2023-07-16T00:52:46;8.70;;;6.50;;
76597;SDS011;65486;53.144;18.134;2023-07-16T00:55:13;10.90;;;6.90;;
76597;SDS011;65486;53.144;18.134;2023-07-16T00:57:41;9.70;;;7.20;;
76597;SDS011;65486;53.144;18.134;2023-07-16T01:00:09;9.00;;;7.20;;
76597;SDS011;65486;53.144;18.134;2023-07-16T01:02:37;11.30;;;6.90;;
76597;SDS011;65486;53.144;18.134;2023-07-16T01:05:04;12.00;;;7.70;;
76597;SDS011;65486;53.144;18.134;2023-07-16T01:07:31;9.20;;;7.30;;
76597;SDS011;65486;53.144;18.134;2023-07-16T01:09:59;10.10;;;7.30;;
76597;SDS011;65486;53.144;18.134;2023-07-16T01:12:27;10.30;;;7.50;;
76597;SDS011;65486;53.144;18.134;2023-07-16T01:14:55;10.00;;;7.40;;
76597;SDS011;65486;53.144;18.134;2023-07-16T01:17:22;8.20;;;6.70;;
76597;SDS011;65486;53.144;18.134;2023-07-16T01:19:49;11.30;;;7.00;;
76597;SDS011;65486;53.144;18.134;2023-07-16T01:22:27;8.30;;;6.70;;
76597;SDS011;65486;53.144;18.134;2023-07-16T01:30:32;7.90;;;6.20;;
76597;SDS011;65486;53.144;18.134;2023-07-16T01:33:00;9.80;;;6.80;;
76597;SDS011;65486;53.144;18.134;2023-07-16T01:35:31;9.00;;;7.70;;
76597;SDS011;65486;53.144;18.134;2023-07-16T01:38:00;9.80;;;7.40;;
76597;SDS011;65486;53.144;18.134;2023-07-16T01:40:27;10.20;;;7.70;;
76597;SDS011;65486;53.144;18.134;2023-07-16T01:42:58;9.10;;;7.00;;
76597;SDS011;65486;53.144;18.134;2023-07-16T01:45:25;9.70;;;7.50;;
76597;SDS011;65486;53.144;18.134;2023-07-16T01:48:05;10.00;;;8.00;;
76597;SDS011;65486;53.144;18.134;2023-07-16T01:50:41;8.30;;;7.20;;
76597;SDS011;65486;53.144;18.134;2023-07-16T01:53:08;9.70;;;7.70;;
76597;SDS011;65486;53.144;18.134;2023-07-16T01:55:35;9.50;;;7.70;;
76597;SDS011;65486;53.144;18.134;2023-07-16T01:58:02;9.20;;;7.10;;
76597;SDS011;65486;53.144;18.134;2023-07-16T02:00:29;10.20;;;7.30;;
76597;SDS011;65486;53.144;18.134;2023-07-16T02:02:57;8.00;;;7.00;;
76597;SDS011;65486;53.144;18.134;2023-07-16T02:05:23;9.80;;;6.60;;
76597;SDS011;65486;53.144;18.134;2023-07-16T02:07:50;8.60;;;7.20;;
76597;SDS011;65486;53.144;18.134;2023-07-16T02:10:17;11.40;;;7.00;;
76597;SDS011;65486;53.144;18.134;2023-07-16T02:12:44;10.70;;;7.10;;
76597;SDS011;65486;53.144;18.134;2023-07-16T02:15:11;8.90;;;7.20;;
76597;SDS011;65486;53.144;18.134;2023-07-16T02:17:38;9.50;;;6.90;;
76597;SDS011;65486;53.144;18.134;2023-07-16T02:20:05;10.90;;;7.20;;
76597;SDS011;65486;53.144;18.134;2023-07-16T02:22:33;12.80;;;7.00;;
76597;SDS011;65486;53.144;18.134;2023-07-16T02:25:01;9.60;;;7.90;;
76597;SDS011;65486;53.144;18.134;2023-07-16T02:27:29;10.10;;;8.00;;
76597;SDS011;65486;53.144;18.134;2023-07-16T02:29:56;10.20;;;8.10;;
76597;SDS011;65486;53.144;18.134;2023-07-16T02:32:23;11.70;;;7.00;;
76597;SDS011;65486;53.144;18.134;2023-07-16T02:34:50;8.80;;;7.90;;
76597;SDS011;65486;53.144;18.134;2023-07-16T02:37:17;9.90;;;7.50;;
76597;SDS011;65486;53.144;18.134;2023-07-16T02:39:44;11.00;;;7.70;;
76597;SDS011;65486;53.144;18.134;2023-07-16T02:42:12;9.50;;;7.30;;
76597;SDS011;65486;53.144;18.134;2023-07-16T02:44:39;9.60;;;7.70;;
76597;SDS011;65486;53.144;18.134;2023-07-16T02:47:11;17.00;;;7.90;;
76597;SDS011;65486;53.144;18.134;2023-07-16T02:49:38;10.90;;;8.10;;
76597;SDS011;65486;53.144;18.134;2023-07-16T02:52:09;8.50;;;7.60;;
76597;SDS011;65486;53.144;18.134;2023-07-16T02:54:36;10.20;;;7.90;;
76597;SDS011;65486;53.144;18.134;2023-07-16T02:57:03;8.30;;;7.10;;
76597;SDS011;65486;53.144;18.134;2023-07-16T02:59:31;9.40;;;7.00;;
76597;SDS011;65486;53.144;18.134;2023-07-16T03:01:58;10.40;;;7.30;;
76597;SDS011;65486;53.144;18.134;2023-07-16T03:04:25;10.50;;;7.60;;
76597;SDS011;65486;53.144;18.134;2023-07-16T03:06:52;10.00;;;7.40;;
76597;SDS011;65486;53.144;18.134;2023-07-16T03:09:20;8.50;;;7.40;;
76597;SDS011;65486;53.144;18.134;2023-07-16T03:11:47;9.90;;;7.50;;
76597;SDS011;65486;53.144;18.134;2023-07-16T03:14:14;10.30;;;7.30;;
76597;SDS011;65486;53.144;18.134;2023-07-16T03:16:41;9.50;;;8.30;;
76597;SDS011;65486;53.144;18.134;2023-07-16T03:19:09;8.60;;;7.30;;
76597;SDS011;65486;53.144;18.134;2023-07-16T03:21:36;8.50;;;7.30;;
76597;SDS011;65486;53.144;18.134;2023-07-16T03:24:03;10.20;;;7.70;;
76597;SDS011;65486;53.144;18.134;2023-07-16T03:26:31;10.70;;;7.60;;
76597;SDS011;65486;53.144;18.134;2023-07-16T03:28:58;10.60;;;8.50;;
76597;SDS011;65486;53.144;18.134;2023-07-16T03:31:25;9.70;;;7.40;;
76597;SDS011;65486;53.144;18.134;2023-07-16T03:33:52;9.40;;;7.00;;
76597;SDS011;65486;53.144;18.134;2023-07-16T03:36:19;9.90;;;7.30;;
76597;SDS011;65486;53.144;18.134;2023-07-16T03:38:46;9.60;;;7.50;;
76597;SDS011;65486;53.144;18.134;2023-07-16T03:41:13;9.50;;;7.80;;
76597;SDS011;65486;53.144;18.134;2023-07-16T03:43:40;9.30;;;6.90;;
76597;SDS011;65486;53.144;18.134;2023-07-16T03:46:16;9.30;;;7.20;;
76597;SDS011;65486;53.144;18.134;2023-07-16T03:48:44;9.60;;;7.80;;
76597;SDS011;65486;53.144;18.134;2023-07-16T03:51:11;11.00;;;7.50;;
76597;SDS011;65486;53.144;18.134;2023-07-16T03:53:38;8.20;;;6.70;;
76597;SDS011;65486;53.144;18.134;2023-07-16T03:56:05;9.80;;;7.70;;
76597;SDS011;65486;53.144;18.134;2023-07-16T03:58:32;10.50;;;8.20;;
76597;SDS011;65486;53.144;18.134;2023-07-16T04:01:02;10.60;;;7.30;;
76597;SDS011;65486;53.144;18.134;2023-07-16T04:03:29;12.40;;;7.40;;
76597;SDS011;65486;53.144;18.134;2023-07-16T04:06:06;9.60;;;6.60;;
76597;SDS011;65486;53.144;18.134;2023-07-16T04:08:35;9.20;;;6.80;;
76597;SDS011;65486;53.144;18.134;2023-07-16T04:11:04;11.80;;;6.30;;
76597;SDS011;65486;53.144;18.134;2023-07-16T04:13:31;13.00;;;7.70;;
76597;SDS011;65486;53.144;18.134;2023-07-16T04:15:58;11.30;;;7.30;;
76597;SDS011;65486;53.144;18.134;2023-07-16T04:18:25;9.30;;;7.50;;
76597;SDS011;65486;53.144;18.134;2023-07-16T04:20:52;9.20;;;6.40;;
76597;SDS011;65486;53.144;18.134;2023-07-16T04:23:19;10.20;;;6.70;;
76597;SDS011;65486;53.144;18.134;2023-07-16T04:25:46;7.80;;;6.80;;
76597;SDS011;65486;53.144;18.134;2023-07-16T04:28:13;10.10;;;7.60;;
76597;SDS011;65486;53.144;18.134;2023-07-16T04:30:40;10.30;;;7.60;;
76597;SDS011;65486;53.144;18.134;2023-07-16T04:33:07;10.00;;;7.00;;
76597;SDS011;65486;53.144;18.134;2023-07-16T04:35:34;12.20;;;6.60;;
76597;SDS011;65486;53.144;18.134;2023-07-16T04:38:01;8.80;;;7.00;;
76597;SDS011;65486;53.144;18.134;2023-07-16T04:40:29;10.20;;;7.30;;
76597;SDS011;65486;53.144;18.134;2023-07-16T04:42:56;10.70;;;6.60;;
76597;SDS011;65486;53.144;18.134;2023-07-16T04:45:23;10.90;;;6.20;;
76597;SDS011;65486;53.144;18.134;2023-07-16T04:47:50;11.70;;;6.10;;
76597;SDS011;65486;53.144;18.134;2023-07-16T04:50:17;8.70;;;6.10;;
76597;SDS011;65486;53.144;18.134;2023-07-16T04:52:44;11.70;;;7.00;;
76597;SDS011;65486;53.144;18.134;2023-07-16T04:55:11;9.70;;;7.20;;
76597;SDS011;65486;53.144;18.134;2023-07-16T04:57:39;10.30;;;5.90;;
76597;SDS011;65486;53.144;18.134;2023-07-16T05:00:06;8.40;;;5.90;;
76597;SDS011;65486;53.144;18.134;2023-07-16T05:02:34;10.20;;;6.50;;
76597;SDS011;65486;53.144;18.134;2023-07-16T05:05:01;8.30;;;6.40;;
76597;SDS011;65486;53.144;18.134;2023-07-16T05:07:28;10.10;;;6.00;;
76597;SDS011;65486;53.144;18.134;2023-07-16T05:09:55;7.80;;;5.40;;
76597;SDS011;65486;53.144;18.134;2023-07-16T05:12:22;9.50;;;6.40;;
76597;SDS011;65486;53.144;18.134;2023-07-16T05:14:49;8.90;;;5.60;;
76597;SDS011;65486;53.144;18.134;2023-07-16T05:17:16;8.80;;;5.80;;
76597;SDS011;65486;53.144;18.134;2023-07-16T05:19:43;9.20;;;5.90;;
76597;SDS011;65486;53.144;18.134;2023-07-16T05:22:11;9.10;;;5.30;;
76597;SDS011;65486;53.144;18.134;2023-07-16T05:24:37;8.00;;;5.30;;
76597;SDS011;65486;53.144;18.134;2023-07-16T05:27:05;9.60;;;5.10;;
76597;SDS011;65486;53.144;18.134;2023-07-16T05:29:34;6.50;;;4.70;;
76597;SDS011;65486;53.144;18.134;2023-07-16T05:32:01;7.40;;;5.20;;
76597;SDS011;65486;53.144;18.134;2023-07-16T05:34:29;10.20;;;5.30;;
76597;SDS011;65486;53.144;18.134;2023-07-16T05:36:55;8.40;;;5.40;;
76597;SDS011;65486;53.144;18.134;2023-07-16T05:39:22;7.40;;;4.10;;
76597;SDS011;65486;53.144;18.134;2023-07-16T05:41:49;6.20;;;5.40;;
76597;SDS011;65486;53.144;18.134;2023-07-16T05:44:16;7.70;;;5.40;;
76597;SDS011;65486;53.144;18.134;2023-07-16T05:46:43;7.10;;;4.30;;
76597;SDS011;65486;53.144;18.134;2023-07-16T05:49:10;6.50;;;4.20;;
76597;SDS011;65486;53.144;18.134;2023-07-16T05:51:37;7.50;;;4.40;;
76597;SDS011;65486;53.144;18.134;2023-07-16T05:54:05;8.40;;;4.00;;
76597;SDS011;65486;53.144;18.134;2023-07-16T05:56:33;5.70;;;4.60;;
76597;SDS011;65486;53.144;18.134;2023-07-16T05:58:59;6.00;;;3.80;;
76597;SDS011;65486;53.144;18.134;2023-07-16T06:01:26;7.10;;;4.60;;
76597;SDS011;65486;53.144;18.134;2023-07-16T06:03:54;5.20;;;3.80;;
76597;SDS011;65486;53.144;18.134;2023-07-16T06:06:21;7.40;;;4.40;;
76597;SDS011;65486;53.144;18.134;2023-07-16T06:08:48;6.80;;;3.90;;
76597;SDS011;65486;53.144;18.134;2023-07-16T06:11:15;7.20;;;4.10;;
76597;SDS011;65486;53.144;18.134;2023-07-16T06:13:42;6.10;;;4.10;;
76597;SDS011;65486;53.144;18.134;2023-07-16T06:16:10;5.70;;;3.50;;
76597;SDS011;65486;53.144;18.134;2023-07-16T06:18:37;4.20;;;3.50;;
76597;SDS011;65486;53.144;18.134;2023-07-16T06:21:04;5.10;;;3.70;;
76597;SDS011;65486;53.144;18.134;2023-07-16T06:23:31;4.80;;;4.20;;
76597;SDS011;65486;53.144;18.134;2023-07-16T06:25:58;5.60;;;4.00;;
76597;SDS011;65486;53.144;18.134;2023-07-16T06:28:25;8.10;;;3.60;;
76597;SDS011;65486;53.144;18.134;2023-07-16T06:30:53;5.60;;;3.50;;
76597;SDS011;65486;53.144;18.134;2023-07-16T06:33:19;5.00;;;4.50;;
76597;SDS011;65486;53.144;18.134;2023-07-16T06:35:47;6.80;;;3.80;;
76597;SDS011;65486;53.144;18.134;2023-07-16T06:38:14;5.50;;;4.00;;
76597;SDS011;65486;53.144;18.134;2023-07-16T06:40:48;6.60;;;3.90;;
76597;SDS011;65486;53.144;18.134;2023-07-16T06:43:16;6.00;;;3.70;;
76597;SDS011;65486;53.144;18.134;2023-07-16T06:45:43;6.50;;;3.50;;
76597;SDS011;65486;53.144;18.134;2023-07-16T06:48:10;3.80;;;2.90;;
76597;SDS011;65486;53.144;18.134;2023-07-16T06:50:37;4.30;;;3.30;;
76597;SDS011;65486;53.144;18.134;2023-07-16T06:53:04;5.10;;;3.40;;
76597;SDS011;65486;53.144;18.134;2023-07-16T06:55:31;8.20;;;3.40;;
76597;SDS011;65486;53.144;18.134;2023-07-16T06:57:59;5.40;;;3.70;;
76597;SDS011;65486;53.144;18.134;2023-07-16T07:00:26;4.10;;;3.70;;
76597;SDS011;65486;53.144;18.134;2023-07-16T07:02:54;7.40;;;3.30;;
76597;SDS011;65486;53.144;18.134;2023-07-16T07:05:21;5.90;;;3.10;;
76597;SDS011;65486;53.144;18.134;2023-07-16T07:07:50;4.20;;;2.80;;
76597;SDS011;65486;53.144;18.134;2023-07-16T07:10:16;4.10;;;3.40;;
76597;SDS011;65486;53.144;18.134;2023-07-16T07:12:43;5.20;;;3.00;;
76597;SDS011;65486;53.144;18.134;2023-07-16T07:15:10;7.00;;;3.10;;
76597;SDS011;65486;53.144;18.134;2023-07-16T07:17:38;5.10;;;2.90;;
76597;SDS011;65486;53.144;18.134;2023-07-16T07:20:06;6.40;;;3.10;;
76597;SDS011;65486;53.144;18.134;2023-07-16T07:22:33;4.60;;;2.60;;
76597;SDS011;65486;53.144;18.134;2023-07-16T07:25:00;3.20;;;2.40;;
76597;SDS011;65486;53.144;18.134;2023-07-16T07:27:27;5.10;;;2.50;;
76597;SDS011;65486;53.144;18.134;2023-07-16T07:29:53;4.90;;;2.60;;
76597;SDS011;65486;53.144;18.134;2023-07-16T07:32:22;4.20;;;2.60;;
76597;SDS011;65486;53.144;18.134;2023-07-16T07:34:49;2.90;;;2.30;;
76597;SDS011;65486;53.144;18.134;2023-07-16T07:37:16;4.10;;;2.20;;
76597;SDS011;65486;53.144;18.134;2023-07-16T07:39:43;3.40;;;2.60;;
76597;SDS011;65486;53.144;18.134;2023-07-16T07:42:13;4.60;;;2.70;;
76597;SDS011;65486;53.144;18.134;2023-07-16T07:44:40;3.80;;;2.30;;
76597;SDS011;65486;53.144;18.134;2023-07-16T07:47:07;3.60;;;2.50;;
76597;SDS011;65486;53.144;18.134;2023-07-16T07:49:35;3.90;;;2.60;;
76597;SDS011;65486;53.144;18.134;2023-07-16T07:52:02;2.50;;;2.20;;
76597;SDS011;65486;53.144;18.134;2023-07-16T07:54:31;4.00;;;2.30;;
76597;SDS011;65486;53.144;18.134;2023-07-16T07:57:02;4.20;;;2.60;;
76597;SDS011;65486;53.144;18.134;2023-07-16T07:59:30;3.30;;;2.60;;
76597;SDS011;65486;53.144;18.134;2023-07-16T08:01:58;3.00;;;1.90;;
76597;SDS011;65486;53.144;18.134;2023-07-16T08:04:25;3.00;;;2.40;;
76597;SDS011;65486;53.144;18.134;2023-07-16T08:06:53;3.90;;;2.30;;
76597;SDS011;65486;53.144;18.134;2023-07-16T08:09:20;2.80;;;2.50;;
76597;SDS011;65486;53.144;18.134;2023-07-16T08:11:48;4.80;;;2.20;;
76597;SDS011;65486;53.144;18.134;2023-07-16T08:14:17;3.00;;;2.30;;
76597;SDS011;65486;53.144;18.134;2023-07-16T08:16:43;4.10;;;1.80;;
76597;SDS011;65486;53.144;18.134;2023-07-16T08:19:10;2.80;;;2.30;;
76597;SDS011;65486;53.144;18.134;2023-07-16T08:21:37;3.30;;;1.70;;
76597;SDS011;65486;53.144;18.134;2023-07-16T08:24:05;2.80;;;1.80;;
76597;SDS011;65486;53.144;18.134;2023-07-16T08:26:33;3.80;;;1.20;;
76597;SDS011;65486;53.144;18.134;2023-07-16T08:29:00;2.00;;;1.30;;
76597;SDS011;65486;53.144;18.134;2023-07-16T08:31:27;2.30;;;1.30;;
76597;SDS011;65486;53.144;18.134;2023-07-16T08:33:55;3.00;;;1.20;;
76597;SDS011;65486;53.144;18.134;2023-07-16T08:36:22;5.20;;;1.50;;
76597;SDS011;65486;53.144;18.134;2023-07-16T08:38:50;3.40;;;1.30;;
76597;SDS011;65486;53.144;18.134;2023-07-16T08:41:17;3.40;;;1.60;;
76597;SDS011;65486;53.144;18.134;2023-07-16T08:43:47;3.00;;;1.50;;
76597;SDS011;65486;53.144;18.134;2023-07-16T08:46:15;1.90;;;1.20;;
76597;SDS011;65486;53.144;18.134;2023-07-16T08:48:42;2.60;;;1.30;;
76597;SDS011;65486;53.144;18.134;2023-07-16T08:51:14;1.50;;;1.00;;
76597;SDS011;65486;53.144;18.134;2023-07-16T08:53:45;4.40;;;1.30;;
76597;SDS011;65486;53.144;18.134;2023-07-16T08:56:13;2.60;;;1.30;;
76597;SDS011;65486;53.144;18.134;2023-07-16T08:58:41;2.70;;;1.40;;
76597;SDS011;65486;53.144;18.134;2023-07-16T09:01:10;3.50;;;1.30;;
76597;SDS011;65486;53.144;18.134;2023-07-16T09:03:39;1.80;;;1.20;;
76597;SDS011;65486;53.144;18.134;2023-07-16T09:06:08;2.90;;;1.30;;
76597;SDS011;65486;53.144;18.134;2023-07-16T09:08:35;2.00;;;1.20;;
76597;SDS011;65486;53.144;18.134;2023-07-16T09:11:02;1.80;;;1.30;;
76597;SDS011;65486;53.144;18.134;2023-07-16T09:13:29;1.90;;;1.10;;
76597;SDS011;65486;53.144;18.134;2023-07-16T09:15:57;1.60;;;0.90;;
76597;SDS011;65486;53.144;18.134;2023-07-16T09:18:26;1.90;;;1.20;;
76597;SDS011;65486;53.144;18.134;2023-07-16T09:21:00;1.70;;;0.90;;
76597;SDS011;65486;53.144;18.134;2023-07-16T09:23:32;2.60;;;0.90;;
76597;SDS011;65486;53.144;18.134;2023-07-16T09:26:00;1.70;;;1.10;;
76597;SDS011;65486;53.144;18.134;2023-07-16T09:28:27;2.50;;;1.30;;
76597;SDS011;65486;53.144;18.134;2023-07-16T09:30:54;2.10;;;1.10;;
76597;SDS011;65486;53.144;18.134;2023-07-16T09:33:22;2.40;;;1.30;;
76597;SDS011;65486;53.144;18.134;2023-07-16T09:35:52;2.70;;;1.00;;
76597;SDS011;65486;53.144;18.134;2023-07-16T09:38:19;3.60;;;1.00;;
76597;SDS011;65486;53.144;18.134;2023-07-16T09:40:47;2.00;;;1.20;;
76597;SDS011;65486;53.144;18.134;2023-07-16T09:43:14;3.10;;;1.20;;
76597;SDS011;65486;53.144;18.134;2023-07-16T09:45:42;2.20;;;1.10;;
76597;SDS011;65486;53.144;18.134;2023-07-16T09:48:09;4.20;;;1.30;;
76597;SDS011;65486;53.144;18.134;2023-07-16T09:50:36;3.60;;;1.00;;
76597;SDS011;65486;53.144;18.134;2023-07-16T09:53:06;3.10;;;1.00;;
76597;SDS011;65486;53.144;18.134;2023-07-16T09:55:34;3.00;;;1.10;;
76597;SDS011;65486;53.144;18.134;2023-07-16T09:58:04;2.80;;;1.50;;
76597;SDS011;65486;53.144;18.134;2023-07-16T10:00:38;1.90;;;1.40;;
76597;SDS011;65486;53.144;18.134;2023-07-16T10:03:07;4.70;;;1.60;;
76597;SDS011;65486;53.144;18.134;2023-07-16T10:05:36;2.60;;;1.20;;
76597;SDS011;65486;53.144;18.134;2023-07-16T10:08:04;3.40;;;1.70;;
76597;SDS011;65486;53.144;18.134;2023-07-16T10:10:42;4.00;;;1.10;;
76597;SDS011;65486;53.144;18.134;2023-07-16T10:13:15;2.70;;;1.50;;
76597;SDS011;65486;53.144;18.134;2023-07-16T10:15:53;2.10;;;1.20;;
76597;SDS011;65486;53.144;18.134;2023-07-16T10:18:28;2.40;;;1.20;;
76597;SDS011;65486;53.144;18.134;2023-07-16T10:21:01;2.90;;;1.50;;
76597;SDS011;65486;53.144;18.134;2023-07-16T10:23:42;2.70;;;1.40;;
76597;SDS011;65486;53.144;18.134;2023-07-16T10:26:13;4.90;;;2.20;;
76597;SDS011;65486;53.144;18.134;2023-07-16T10:28:41;3.50;;;1.10;;
76597;SDS011;65486;53.144;18.134;2023-07-16T10:31:26;2.30;;;1.30;;
76597;SDS011;65486;53.144;18.134;2023-07-16T10:34:04;2.70;;;1.60;;
76597;SDS011;65486;53.144;18.134;2023-07-16T10:36:41;3.60;;;1.80;;
76597;SDS011;65486;53.144;18.134;2023-07-16T10:39:08;2.80;;;2.00;;
76597;SDS011;65486;53.144;18.134;2023-07-16T10:45:25;5.30;;;1.80;;
76597;SDS011;65486;53.144;18.134;2023-07-16T10:48:00;4.00;;;1.80;;
76597;SDS011;65486;53.144;18.134;2023-07-16T10:50:34;2.80;;;2.00;;
76597;SDS011;65486;53.144;18.134;2023-07-16T10:53:02;3.90;;;1.90;;
76597;SDS011;65486;53.144;18.134;2023-07-16T10:55:45;4.00;;;2.00;;
76597;SDS011;65486;53.144;18.134;2023-07-16T10:58:12;3.10;;;2.10;;
76597;SDS011;65486;53.144;18.134;2023-07-16T11:00:40;4.20;;;2.00;;
76597;SDS011;65486;53.144;18.134;2023-07-16T11:03:07;4.90;;;2.30;;
76597;SDS011;65486;53.144;18.134;2023-07-16T11:05:39;5.90;;;2.50;;
76597;SDS011;65486;53.144;18.134;2023-07-16T11:08:06;6.90;;;2.70;;
76597;SDS011;65486;53.144;18.134;2023-07-16T11:10:33;4.60;;;2.60;;
76597;SDS011;65486;53.144;18.134;2023-07-16T11:13:00;3.40;;;2.10;;
76597;SDS011;65486;53.144;18.134;2023-07-16T11:15:34;5.80;;;2.20;;
76597;SDS011;65486;53.144;18.134;2023-07-16T11:18:02;3.70;;;2.80;;
76597;SDS011;65486;53.144;18.134;2023-07-16T11:20:29;3.50;;;2.30;;
76597;SDS011;65486;53.144;18.134;2023-07-16T11:22:58;3.40;;;1.70;;
76597;SDS011;65486;53.144;18.134;2023-07-16T11:25:28;3.20;;;1.90;;
76597;SDS011;65486;53.144;18.134;2023-07-16T11:27:56;2.90;;;2.00;;
76597;SDS011;65486;53.144;18.134;2023-07-16T11:30:24;3.60;;;1.90;;
76597;SDS011;65486;53.144;18.134;2023-07-16T11:32:57;2.50;;;1.80;;
76597;SDS011;65486;53.144;18.134;2023-07-16T11:35:24;3.30;;;1.40;;
76597;SDS011;65486;53.144;18.134;2023-07-16T11:37:54;4.20;;;2.00;;
76597;SDS011;65486;53.144;18.134;2023-07-16T11:40:22;3.30;;;2.10;;
76597;SDS011;65486;53.144;18.134;2023-07-16T11:42:48;1.80;;;1.40;;
76597;SDS011;65486;53.144;18.134;2023-07-16T11:45:19;3.70;;;1.60;;
76597;SDS011;65486;53.144;18.134;2023-07-16T11:47:47;2.20;;;1.30;;
76597;SDS011;65486;53.144;18.134;2023-07-16T11:50:14;2.50;;;1.60;;
76597;SDS011;65486;53.144;18.134;2023-07-16T11:52:41;2.30;;;1.80;;
76597;SDS011;65486;53.144;18.134;2023-07-16T11:55:08;3.10;;;2.10;;
76597;SDS011;65486;53.144;18.134;2023-07-16T11:57:37;2.40;;;2.10;;
76597;SDS011;65486;53.144;18.134;2023-07-16T12:00:04;3.60;;;2.00;;
76597;SDS011;65486;53.144;18.134;2023-07-16T12:02:35;3.20;;;1.30;;
76597;SDS011;65486;53.144;18.134;2023-07-16T12:05:02;2.70;;;1.90;;
76597;SDS011;65486;53.144;18.134;2023-07-16T12:07:31;3.20;;;2.60;;
76597;SDS011;65486;53.144;18.134;2023-07-16T12:09:59;2.90;;;1.60;;
76597;SDS011;65486;53.144;18.134;2023-07-16T12:12:29;1.80;;;1.10;;
76597;SDS011;65486;53.144;18.134;2023-07-16T12:14:57;2.50;;;1.60;;
76597;SDS011;65486;53.144;18.134;2023-07-16T12:17:23;2.30;;;1.70;;
76597;SDS011;65486;53.144;18.134;2023-07-16T12:20:05;1.70;;;1.60;;
76597;SDS011;65486;53.144;18.134;2023-07-16T12:22:35;1.90;;;1.50;;
76597;SDS011;65486;53.144;18.134;2023-07-16T12:25:04;2.90;;;1.70;;
76597;SDS011;65486;53.144;18.134;2023-07-16T12:27:33;2.10;;;1.70;;
76597;SDS011;65486;53.144;18.134;2023-07-16T12:30:00;1.90;;;1.40;;
76597;SDS011;65486;53.144;18.134;2023-07-16T12:32:31;2.00;;;1.40;;
76597;SDS011;65486;53.144;18.134;2023-07-16T12:34:58;2.90;;;1.80;;
76597;SDS011;65486;53.144;18.134;2023-07-16T12:37:26;2.90;;;1.40;;
76597;SDS011;65486;53.144;18.134;2023-07-16T12:39:53;2.80;;;1.60;;
76597;SDS011;65486;53.144;18.134;2023-07-16T12:42:20;2.60;;;1.50;;
76597;SDS011;65486;53.144;18.134;2023-07-16T12:44:50;2.60;;;1.80;;
76597;SDS011;65486;53.144;18.134;2023-07-16T12:47:20;2.30;;;1.80;;
76597;SDS011;65486;53.144;18.134;2023-07-16T12:49:47;3.10;;;1.30;;
76597;SDS011;65486;53.144;18.134;2023-07-16T12:52:15;2.50;;;1.90;;
76597;SDS011;65486;53.144;18.134;2023-07-16T12:54:42;2.60;;;1.80;;
76597;SDS011;65486;53.144;18.134;2023-07-16T12:57:10;2.20;;;1.70;;
76597;SDS011;65486;53.144;18.134;2023-07-16T12:59:37;2.50;;;1.80;;
76597;SDS011;65486;53.144;18.134;2023-07-16T13:02:05;5.00;;;2.00;;
76597;SDS011;65486;53.144;18.134;2023-07-16T13:04:32;2.20;;;1.60;;
76597;SDS011;65486;53.144;18.134;2023-07-16T13:07:00;3.00;;;1.70;;
76597;SDS011;65486;53.144;18.134;2023-07-16T13:09:26;3.00;;;2.00;;
76597;SDS011;65486;53.144;18.134;2023-07-16T13:11:54;3.40;;;2.70;;
76597;SDS011;65486;53.144;18.134;2023-07-16T13:14:21;2.80;;;2.10;;
76597;SDS011;65486;53.144;18.134;2023-07-16T13:16:49;3.60;;;1.80;;
76597;SDS011;65486;53.144;18.134;2023-07-16T13:19:15;2.60;;;1.60;;
76597;SDS011;65486;53.144;18.134;2023-07-16T13:21:42;2.70;;;2.30;;
76597;SDS011;65486;53.144;18.134;2023-07-16T13:24:10;2.80;;;1.80;;
76597;SDS011;65486;53.144;18.134;2023-07-16T13:26:38;2.70;;;1.70;;
76597;SDS011;65486;53.144;18.134;2023-07-16T13:29:06;3.50;;;1.60;;
76597;SDS011;65486;53.144;18.134;2023-07-16T13:31:32;3.50;;;1.70;;
76597;SDS011;65486;53.144;18.134;2023-07-16T13:33:59;3.20;;;2.00;;
76597;SDS011;65486;53.144;18.134;2023-07-16T13:36:26;2.80;;;1.90;;
76597;SDS011;65486;53.144;18.134;2023-07-16T13:38:53;2.50;;;1.80;;
76597;SDS011;65486;53.144;18.134;2023-07-16T13:41:20;2.80;;;1.80;;
76597;SDS011;65486;53.144;18.134;2023-07-16T13:43:47;2.50;;;2.20;;
76597;SDS011;65486;53.144;18.134;2023-07-16T13:46:14;3.40;;;2.00;;
76597;SDS011;65486;53.144;18.134;2023-07-16T13:48:41;2.90;;;2.00;;
76597;SDS011;65486;53.144;18.134;2023-07-16T13:51:09;4.90;;;1.70;;
76597;SDS011;65486;53.144;18.134;2023-07-16T13:53:36;2.90;;;2.80;;
76597;SDS011;65486;53.144;18.134;2023-07-16T13:56:04;3.00;;;2.10;;
76597;SDS011;65486;53.144;18.134;2023-07-16T13:58:31;2.40;;;1.90;;
76597;SDS011;65486;53.144;18.134;2023-07-16T14:00:58;2.30;;;1.60;;
76597;SDS011;65486;53.144;18.134;2023-07-16T14:03:26;3.30;;;2.00;;
76597;SDS011;65486;53.144;18.134;2023-07-16T14:05:54;5.00;;;1.70;;
76597;SDS011;65486;53.144;18.134;2023-07-16T14:08:22;3.60;;;2.00;;
76597;SDS011;65486;53.144;18.134;2023-07-16T14:10:50;3.10;;;1.80;;
76597;SDS011;65486;53.144;18.134;2023-07-16T14:13:31;4.20;;;2.10;;
76597;SDS011;65486;53.144;18.134;2023-07-16T14:15:59;3.60;;;1.90;;
76597;SDS011;65486;53.144;18.134;2023-07-16T14:18:26;3.20;;;2.10;;
76597;SDS011;65486;53.144;18.134;2023-07-16T14:20:53;3.40;;;2.00;;
76597;SDS011;65486;53.144;18.134;2023-07-16T14:23:20;2.60;;;2.30;;
76597;SDS011;65486;53.144;18.134;2023-07-16T14:25:47;3.90;;;2.10;;
76597;SDS011;65486;53.144;18.134;2023-07-16T14:28:13;3.40;;;2.20;;
76597;SDS011;65486;53.144;18.134;2023-07-16T14:30:40;2.70;;;2.00;;
76597;SDS011;65486;53.144;18.134;2023-07-16T14:33:09;3.70;;;2.30;;
76597;SDS011;65486;53.144;18.134;2023-07-16T14:35:37;6.30;;;2.70;;
76597;SDS011;65486;53.144;18.134;2023-07-16T14:38:04;5.40;;;2.20;;
76597;SDS011;65486;53.144;18.134;2023-07-16T14:40:30;2.90;;;1.50;;
76597;SDS011;65486;53.144;18.134;2023-07-16T14:42:58;2.20;;;1.50;;
76597;SDS011;65486;53.144;18.134;2023-07-16T14:45:25;2.60;;;1.90;;
76597;SDS011;65486;53.144;18.134;2023-07-16T14:47:52;2.90;;;2.40;;